Informes METAR cercanos

 

LELL - Sabadell, Spain
Distance from station: O 25km
Actualización: 28/01/2022 05:00:00
Despejado
Despejado
 Viento del varies
Viento: varies 2 km/h
Temperatura: 0°C
Rocío: -3°C
Humedad: 80%
Barómetro: 1029 hPa
Resumen: Despejado
Visibility: greater than 10 km
2022/01/28 04:00 LELL 280400Z AUTO VRB01KT CAVOK M00/M03 Q1029
LEBL - Barcelona Airpor, Spain
Distance from station: SO 38km
Actualización: 28/01/2022 05:00:00
Despejado
Despejado
 Viento del NO
Viento: NO 24 km/h
Temperatura: 5°C
Wind Chill: 1°C
Rocío: -2°C
Humedad: 61%
Barómetro: 1029 hPa
Resumen: Despejado
Visibility: greater than 10 km
2022/01/28 04:00 LEBL 280400Z 32013KT CAVOK 05/M02 Q1029 NOSIG
 
LEGE - Gerona/Costa Bra, Spain
Distance from station: NE 52km
Actualización: 28/01/2022 05:00:00
Parcialmente nuboso
Parcialmente nuboso
 Viento del varies
Viento: varies 4 km/h
Temperatura: -2°C
Rocío: -2°C
Humedad: 100%
Barómetro: 1028 hPa
Clouds: Parcialmente nuboso
Visibility: 10 km
2022/01/28 04:00 LEGE 280400Z VRB02KT 9999 1500N R19/1100U NSC M02/M02 Q1028
LERS - Reus (civ/Mil), Spain
Distance from station: OSO 111km
Actualización: 28/01/2022 05:00:00
Despejado
Despejado
 Viento del NNE
Viento: NNE 7 km/h
Temperatura: -1°C
Wind Chill: -4°C
Rocío: -3°C
Humedad: 86%
Barómetro: 1029 hPa
Resumen: Despejado
Visibility: greater than 10 km
2022/01/28 04:00 LERS 280400Z AUTO 02004KT CAVOK M01/M03 Q1029
 
LESU - Pirineus/La Seu, Spain
Distance from station: NO 124km
Actualización: 27/01/2022 17:00:00
NOT Current
Despejado
Despejado
 Viento del SO
Viento: SO 13 km/h
Temperatura: 13°C
Rocío: -8°C
Humedad: 23%
Barómetro: 1027 hPa
Resumen: Despejado
Visibility: greater than 10 km
2022/01/27 16:00 LESU 271600Z 23007KT 190V260 CAVOK 13/M08 Q1027
LFMP - Perpignan/Rivesa, France
Distance from station: NNE 141km
Actualización: 28/01/2022 05:00:00
Despejado
Despejado
 Viento del NO
Viento: NO 20 km/h
Temperatura: 11°C
Rocío: -3°C
Humedad: 38%
Barómetro: 1029 hPa
Resumen: Despejado
Visibility: greater than 10 km
2022/01/28 04:00 LFMP 280400Z AUTO 32011KT 290V350 CAVOK 11/M03 Q1029 BECMG 30018G28KT